Silver Lake, Michigan
Current Conditions -  °F | °C
As of 7:15 AM on Thursday 29 Jan 2015 (Local Time) from KLDM Reporting Station
Overcast Overcast  
Wind Chill: 31°   Ceiling: 2300
Heat Index: 31°   Visibility: 7mi
Dew Point: 26°   Wind: 3mph
Humidity: 82%   Direction: 120°ESE
Pressure: 29.76"   Gusts: NA
Location:  43.6851°N, 86.4584°W
Report Text: KLDM 291215Z AUTO 12003KT 7SM OVC023 M01/M03 A2976 RMK AO2 T10071035
Loading
Personal Weather Stations






























Interactive Weather Map New forecast layout! Learn more

10-Day Weather Forecast

Advertisements
Track Severe Weather on mobile